sensor_id;sensor_type;location;lat;lon;timestamp;temperature;humidity
15105;DHT22;7653;48.994;9.212;2022-10-16T00:03:32;15.70;97.80
15105;DHT22;7653;48.994;9.212;2022-10-16T00:06:02;15.80;97.50
15105;DHT22;7653;48.994;9.212;2022-10-16T00:08:28;15.80;97.30
15105;DHT22;7653;48.994;9.212;2022-10-16T00:10:59;15.70;96.80
15105;DHT22;7653;48.994;9.212;2022-10-16T00:13:28;15.70;96.90
15105;DHT22;7653;48.994;9.212;2022-10-16T00:15:57;15.70;97.50
15105;DHT22;7653;48.994;9.212;2022-10-16T00:18:24;15.70;97.80
15105;DHT22;7653;48.994;9.212;2022-10-16T00:23:34;15.80;98.00
15105;DHT22;7653;48.994;9.212;2022-10-16T00:26:02;15.80;98.10
15105;DHT22;7653;48.994;9.212;2022-10-16T00:28:29;15.80;97.60
15105;DHT22;7653;48.994;9.212;2022-10-16T00:30:55;15.80;97.50
15105;DHT22;7653;48.994;9.212;2022-10-16T00:33:21;15.80;97.20
15105;DHT22;7653;48.994;9.212;2022-10-16T00:35:47;15.80;97.10
15105;DHT22;7653;48.994;9.212;2022-10-16T00:38:14;15.90;96.90
15105;DHT22;7653;48.994;9.212;2022-10-16T00:40:41;15.90;95.60
15105;DHT22;7653;48.994;9.212;2022-10-16T00:49:09;15.80;96.90
15105;DHT22;7653;48.994;9.212;2022-10-16T00:51:54;15.70;96.60
15105;DHT22;7653;48.994;9.212;2022-10-16T00:54:26;15.70;96.80
15105;DHT22;7653;48.994;9.212;2022-10-16T00:56:54;15.70;97.30
15105;DHT22;7653;48.994;9.212;2022-10-16T01:01:57;15.80;97.20
15105;DHT22;7653;48.994;9.212;2022-10-16T01:04:23;15.80;97.20
15105;DHT22;7653;48.994;9.212;2022-10-16T01:07:11;15.80;97.00
15105;DHT22;7653;48.994;9.212;2022-10-16T01:15:01;15.80;96.40
15105;DHT22;7653;48.994;9.212;2022-10-16T01:31:33;15.90;95.60
15105;DHT22;7653;48.994;9.212;2022-10-16T01:34:06;15.90;95.60
15105;DHT22;7653;48.994;9.212;2022-10-16T01:36:42;15.90;95.60
15105;DHT22;7653;48.994;9.212;2022-10-16T01:39:11;15.90;95.60
15105;DHT22;7653;48.994;9.212;2022-10-16T01:41:42;15.90;95.60
15105;DHT22;7653;48.994;9.212;2022-10-16T01:44:12;15.90;95.60
15105;DHT22;7653;48.994;9.212;2022-10-16T01:46:41;15.90;95.60
15105;DHT22;7653;48.994;9.212;2022-10-16T01:49:09;15.90;95.60
15105;DHT22;7653;48.994;9.212;2022-10-16T01:51:37;15.90;95.60
15105;DHT22;7653;48.994;9.212;2022-10-16T01:54:04;15.90;95.60
15105;DHT22;7653;48.994;9.212;2022-10-16T01:56:32;15.90;95.60
15105;DHT22;7653;48.994;9.212;2022-10-16T01:59:06;15.90;95.60
15105;DHT22;7653;48.994;9.212;2022-10-16T02:01:38;15.90;95.60
15105;DHT22;7653;48.994;9.212;2022-10-16T02:04:22;16.00;95.60
15105;DHT22;7653;48.994;9.212;2022-10-16T02:06:49;16.00;95.40
15105;DHT22;7653;48.994;9.212;2022-10-16T02:09:15;16.00;94.80
15105;DHT22;7653;48.994;9.212;2022-10-16T02:11:43;16.00;94.80
15105;DHT22;7653;48.994;9.212;2022-10-16T02:14:09;16.00;95.00
15105;DHT22;7653;48.994;9.212;2022-10-16T02:16:38;16.00;95.10
15105;DHT22;7653;48.994;9.212;2022-10-16T02:19:05;16.00;95.10
15105;DHT22;7653;48.994;9.212;2022-10-16T02:21:41;16.00;95.10
15105;DHT22;7653;48.994;9.212;2022-10-16T02:27:01;16.00;95.50
15105;DHT22;7653;48.994;9.212;2022-10-16T02:29:28;16.00;95.60
15105;DHT22;7653;48.994;9.212;2022-10-16T02:32:00;16.00;95.60
15105;DHT22;7653;48.994;9.212;2022-10-16T02:34:28;16.00;95.60
15105;DHT22;7653;48.994;9.212;2022-10-16T02:36:56;16.00;95.60
15105;DHT22;7653;48.994;9.212;2022-10-16T02:39:23;16.00;95.60
15105;DHT22;7653;48.994;9.212;2022-10-16T02:41:49;16.00;95.00
15105;DHT22;7653;48.994;9.212;2022-10-16T02:44:15;16.10;95.00
15105;DHT22;7653;48.994;9.212;2022-10-16T02:46:40;16.10;94.80
15105;DHT22;7653;48.994;9.212;2022-10-16T02:49:06;16.00;94.60
15105;DHT22;7653;48.994;9.212;2022-10-16T02:51:32;15.90;94.70
15105;DHT22;7653;48.994;9.212;2022-10-16T02:53:57;15.90;95.20
15105;DHT22;7653;48.994;9.212;2022-10-16T02:56:23;15.90;95.60
15105;DHT22;7653;48.994;9.212;2022-10-16T02:58:49;15.90;95.60
15105;DHT22;7653;48.994;9.212;2022-10-16T03:01:14;16.00;95.20
15105;DHT22;7653;48.994;9.212;2022-10-16T03:03:42;16.00;95.10
15105;DHT22;7653;48.994;9.212;2022-10-16T03:06:08;16.00;94.50
15105;DHT22;7653;48.994;9.212;2022-10-16T03:08:33;15.90;94.70
15105;DHT22;7653;48.994;9.212;2022-10-16T03:10:59;15.80;95.50
15105;DHT22;7653;48.994;9.212;2022-10-16T03:13:24;15.80;96.20
15105;DHT22;7653;48.994;9.212;2022-10-16T03:15:50;15.70;96.80
15105;DHT22;7653;48.994;9.212;2022-10-16T03:18:16;15.70;97.40
15105;DHT22;7653;48.994;9.212;2022-10-16T03:20:42;15.80;97.10
15105;DHT22;7653;48.994;9.212;2022-10-16T03:23:08;15.80;96.90
15105;DHT22;7653;48.994;9.212;2022-10-16T03:25:34;15.80;96.60
15105;DHT22;7653;48.994;9.212;2022-10-16T03:28:00;15.80;96.20
15105;DHT22;7653;48.994;9.212;2022-10-16T03:30:25;15.80;96.20
15105;DHT22;7653;48.994;9.212;2022-10-16T03:32:51;15.80;96.00
15105;DHT22;7653;48.994;9.212;2022-10-16T03:35:21;15.80;95.90
15105;DHT22;7653;48.994;9.212;2022-10-16T03:37:46;15.70;96.20
15105;DHT22;7653;48.994;9.212;2022-10-16T03:40:12;15.70;96.40
15105;DHT22;7653;48.994;9.212;2022-10-16T03:42:37;15.70;96.00
15105;DHT22;7653;48.994;9.212;2022-10-16T03:45:04;15.70;96.40
15105;DHT22;7653;48.994;9.212;2022-10-16T03:47:30;15.70;96.50
15105;DHT22;7653;48.994;9.212;2022-10-16T03:49:58;15.60;96.10
15105;DHT22;7653;48.994;9.212;2022-10-16T03:52:24;15.60;96.20
15105;DHT22;7653;48.994;9.212;2022-10-16T03:54:49;15.50;96.40
15105;DHT22;7653;48.994;9.212;2022-10-16T03:57:15;15.60;96.50
15105;DHT22;7653;48.994;9.212;2022-10-16T03:59:40;15.50;96.70
15105;DHT22;7653;48.994;9.212;2022-10-16T04:02:06;15.50;96.90
15105;DHT22;7653;48.994;9.212;2022-10-16T04:04:32;15.50;96.60
15105;DHT22;7653;48.994;9.212;2022-10-16T04:06:57;15.50;96.60
15105;DHT22;7653;48.994;9.212;2022-10-16T04:09:23;15.60;96.30
15105;DHT22;7653;48.994;9.212;2022-10-16T04:11:48;15.40;95.60
15105;DHT22;7653;48.994;9.212;2022-10-16T04:14:14;15.40;96.10
15105;DHT22;7653;48.994;9.212;2022-10-16T04:16:39;15.30;96.70
15105;DHT22;7653;48.994;9.212;2022-10-16T04:19:05;15.20;97.30
15105;DHT22;7653;48.994;9.212;2022-10-16T04:21:31;15.20;97.60
15105;DHT22;7653;48.994;9.212;2022-10-16T04:23:57;15.20;98.00
15105;DHT22;7653;48.994;9.212;2022-10-16T04:26:23;15.20;97.90
15105;DHT22;7653;48.994;9.212;2022-10-16T04:28:48;15.20;98.30
15105;DHT22;7653;48.994;9.212;2022-10-16T04:31:14;15.20;98.50
15105;DHT22;7653;48.994;9.212;2022-10-16T04:33:42;15.20;98.40
15105;DHT22;7653;48.994;9.212;2022-10-16T04:36:08;15.20;98.60
15105;DHT22;7653;48.994;9.212;2022-10-16T04:38:34;15.30;98.50
15105;DHT22;7653;48.994;9.212;2022-10-16T04:40:59;15.20;98.30
15105;DHT22;7653;48.994;9.212;2022-10-16T04:43:25;15.20;98.70
15105;DHT22;7653;48.994;9.212;2022-10-16T04:45:51;15.20;98.30
15105;DHT22;7653;48.994;9.212;2022-10-16T04:48:18;15.30;97.60
15105;DHT22;7653;48.994;9.212;2022-10-16T04:50:43;15.10;97.60
15105;DHT22;7653;48.994;9.212;2022-10-16T04:53:09;15.10;98.00
15105;DHT22;7653;48.994;9.212;2022-10-16T04:55:35;15.10;98.40
15105;DHT22;7653;48.994;9.212;2022-10-16T04:58:00;15.10;98.70
15105;DHT22;7653;48.994;9.212;2022-10-16T05:00:26;15.10;99.10
15105;DHT22;7653;48.994;9.212;2022-10-16T05:02:52;15.10;99.00
15105;DHT22;7653;48.994;9.212;2022-10-16T05:05:18;15.00;99.10
15105;DHT22;7653;48.994;9.212;2022-10-16T05:07:45;15.00;99.10
15105;DHT22;7653;48.994;9.212;2022-10-16T05:10:11;15.10;99.30
15105;DHT22;7653;48.994;9.212;2022-10-16T05:12:37;15.10;99.10
15105;DHT22;7653;48.994;9.212;2022-10-16T05:15:03;15.00;99.10
15105;DHT22;7653;48.994;9.212;2022-10-16T05:17:29;15.00;99.40
15105;DHT22;7653;48.994;9.212;2022-10-16T05:19:54;15.00;99.40
15105;DHT22;7653;48.994;9.212;2022-10-16T05:22:20;14.90;99.50
15105;DHT22;7653;48.994;9.212;2022-10-16T05:24:46;15.00;99.90
15105;DHT22;7653;48.994;9.212;2022-10-16T05:27:12;15.00;99.80
15105;DHT22;7653;48.994;9.212;2022-10-16T05:29:45;15.00;99.90
15105;DHT22;7653;48.994;9.212;2022-10-16T05:32:12;14.90;99.90
15105;DHT22;7653;48.994;9.212;2022-10-16T05:34:38;15.00;99.90
15105;DHT22;7653;48.994;9.212;2022-10-16T05:37:05;14.90;99.80
15105;DHT22;7653;48.994;9.212;2022-10-16T05:39:31;15.00;99.90
15105;DHT22;7653;48.994;9.212;2022-10-16T05:41:56;14.90;99.80
15105;DHT22;7653;48.994;9.212;2022-10-16T05:44:22;15.00;99.90
15105;DHT22;7653;48.994;9.212;2022-10-16T05:46:48;15.10;99.80
15105;DHT22;7653;48.994;9.212;2022-10-16T05:49:13;15.10;99.10
15105;DHT22;7653;48.994;9.212;2022-10-16T05:51:39;15.00;99.00
15105;DHT22;7653;48.994;9.212;2022-10-16T05:54:05;15.00;99.10
15105;DHT22;7653;48.994;9.212;2022-10-16T05:56:30;14.90;99.10
15105;DHT22;7653;48.994;9.212;2022-10-16T05:58:56;15.00;99.40
15105;DHT22;7653;48.994;9.212;2022-10-16T06:01:21;15.00;99.10
15105;DHT22;7653;48.994;9.212;2022-10-16T06:03:50;14.90;99.10
15105;DHT22;7653;48.994;9.212;2022-10-16T06:06:18;14.80;99.00
15105;DHT22;7653;48.994;9.212;2022-10-16T06:08:46;14.70;99.50
15105;DHT22;7653;48.994;9.212;2022-10-16T06:11:14;14.80;99.90
15105;DHT22;7653;48.994;9.212;2022-10-16T06:13:40;14.80;99.90
15105;DHT22;7653;48.994;9.212;2022-10-16T06:16:11;14.80;99.90
15105;DHT22;7653;48.994;9.212;2022-10-16T06:18:38;14.80;99.90
15105;DHT22;7653;48.994;9.212;2022-10-16T06:21:13;14.90;99.90
15105;DHT22;7653;48.994;9.212;2022-10-16T06:23:39;15.00;99.90
15105;DHT22;7653;48.994;9.212;2022-10-16T06:26:09;15.00;99.90
15105;DHT22;7653;48.994;9.212;2022-10-16T06:28:37;15.10;99.90
15105;DHT22;7653;48.994;9.212;2022-10-16T06:31:04;15.20;99.90
15105;DHT22;7653;48.994;9.212;2022-10-16T06:33:31;15.20;99.20
15105;DHT22;7653;48.994;9.212;2022-10-16T06:36:14;15.30;99.20
15105;DHT22;7653;48.994;9.212;2022-10-16T06:38:40;15.40;99.00
15105;DHT22;7653;48.994;9.212;2022-10-16T06:41:07;15.40;97.90
15105;DHT22;7653;48.994;9.212;2022-10-16T06:43:33;15.30;97.30
15105;DHT22;7653;48.994;9.212;2022-10-16T06:46:03;15.30;97.70
15105;DHT22;7653;48.994;9.212;2022-10-16T06:48:29;15.20;97.80
15105;DHT22;7653;48.994;9.212;2022-10-16T06:53:30;15.10;98.80
15105;DHT22;7653;48.994;9.212;2022-10-16T06:55:58;15.00;99.10
15105;DHT22;7653;48.994;9.212;2022-10-16T06:58:24;15.00;99.40
15105;DHT22;7653;48.994;9.212;2022-10-16T07:00:55;15.20;99.90
15105;DHT22;7653;48.994;9.212;2022-10-16T07:03:22;15.20;99.90
15105;DHT22;7653;48.994;9.212;2022-10-16T07:05:47;15.30;99.90
15105;DHT22;7653;48.994;9.212;2022-10-16T07:08:13;15.40;99.90
15105;DHT22;7653;48.994;9.212;2022-10-16T07:10:39;15.50;99.80
15105;DHT22;7653;48.994;9.212;2022-10-16T07:13:04;15.50;99.90
15105;DHT22;7653;48.994;9.212;2022-10-16T07:15:30;15.50;99.90
15105;DHT22;7653;48.994;9.212;2022-10-16T07:17:56;15.50;99.90
15105;DHT22;7653;48.994;9.212;2022-10-16T07:20:22;15.50;99.90
15105;DHT22;7653;48.994;9.212;2022-10-16T07:22:47;15.70;99.90
15105;DHT22;7653;48.994;9.212;2022-10-16T07:25:13;15.80;99.90
15105;DHT22;7653;48.994;9.212;2022-10-16T07:27:38;15.90;99.50
15105;DHT22;7653;48.994;9.212;2022-10-16T07:30:05;15.80;98.50
15105;DHT22;7653;48.994;9.212;2022-10-16T07:32:31;15.80;98.70
15105;DHT22;7653;48.994;9.212;2022-10-16T07:34:58;15.80;99.00
15105;DHT22;7653;48.994;9.212;2022-10-16T07:37:24;15.80;98.90
15105;DHT22;7653;48.994;9.212;2022-10-16T07:39:49;15.80;99.10
15105;DHT22;7653;48.994;9.212;2022-10-16T07:42:15;15.90;99.30
15105;DHT22;7653;48.994;9.212;2022-10-16T07:44:40;15.90;99.50
15105;DHT22;7653;48.994;9.212;2022-10-16T07:47:06;15.90;98.70
15105;DHT22;7653;48.994;9.212;2022-10-16T07:49:32;16.00;98.90
15105;DHT22;7653;48.994;9.212;2022-10-16T07:51:58;16.00;98.60
15105;DHT22;7653;48.994;9.212;2022-10-16T07:54:24;16.00;98.60
15105;DHT22;7653;48.994;9.212;2022-10-16T07:56:50;16.00;98.70
15105;DHT22;7653;48.994;9.212;2022-10-16T07:59:16;15.90;98.80
15105;DHT22;7653;48.994;9.212;2022-10-16T08:01:42;16.10;99.20
15105;DHT22;7653;48.994;9.212;2022-10-16T08:04:08;16.20;99.00
15105;DHT22;7653;48.994;9.212;2022-10-16T08:06:39;16.40;98.80
15105;DHT22;7653;48.994;9.212;2022-10-16T08:09:06;16.70;97.90
15105;DHT22;7653;48.994;9.212;2022-10-16T08:11:35;16.80;96.00
15105;DHT22;7653;48.994;9.212;2022-10-16T08:14:02;17.00;95.50
15105;DHT22;7653;48.994;9.212;2022-10-16T08:16:27;17.20;92.10
15105;DHT22;7653;48.994;9.212;2022-10-16T08:18:54;17.30;90.90
15105;DHT22;7653;48.994;9.212;2022-10-16T08:21:22;17.30;88.40
15105;DHT22;7653;48.994;9.212;2022-10-16T08:23:50;17.30;87.10
15105;DHT22;7653;48.994;9.212;2022-10-16T08:26:15;17.40;86.90
15105;DHT22;7653;48.994;9.212;2022-10-16T08:28:44;17.30;90.10
15105;DHT22;7653;48.994;9.212;2022-10-16T08:31:15;17.30;90.50
15105;DHT22;7653;48.994;9.212;2022-10-16T08:33:44;17.30;88.80
15105;DHT22;7653;48.994;9.212;2022-10-16T08:36:13;17.60;87.30
15105;DHT22;7653;48.994;9.212;2022-10-16T08:38:39;17.70;87.10
15105;DHT22;7653;48.994;9.212;2022-10-16T08:44:03;17.90;79.10
15105;DHT22;7653;48.994;9.212;2022-10-16T08:49:22;18.00;77.10
15105;DHT22;7653;48.994;9.212;2022-10-16T08:51:51;18.00;78.50
15105;DHT22;7653;48.994;9.212;2022-10-16T08:54:31;18.20;79.50
15105;DHT22;7653;48.994;9.212;2022-10-16T08:59:35;18.30;80.40
15105;DHT22;7653;48.994;9.212;2022-10-16T09:02:02;18.10;83.20
15105;DHT22;7653;48.994;9.212;2022-10-16T09:07:49;18.40;80.90
15105;DHT22;7653;48.994;9.212;2022-10-16T09:10:27;18.40;77.40
15105;DHT22;7653;48.994;9.212;2022-10-16T09:13:23;18.50;76.90
15105;DHT22;7653;48.994;9.212;2022-10-16T09:21:43;18.80;71.20
15105;DHT22;7653;48.994;9.212;2022-10-16T09:24:23;18.80;68.20
15105;DHT22;7653;48.994;9.212;2022-10-16T09:26:49;18.70;72.30
15105;DHT22;7653;48.994;9.212;2022-10-16T09:29:23;18.80;68.40
15105;DHT22;7653;48.994;9.212;2022-10-16T09:31:51;18.70;68.10
15105;DHT22;7653;48.994;9.212;2022-10-16T09:34:32;18.70;68.10
15105;DHT22;7653;48.994;9.212;2022-10-16T09:37:04;18.70;68.10
15105;DHT22;7653;48.994;9.212;2022-10-16T09:39:31;18.70;68.10
15105;DHT22;7653;48.994;9.212;2022-10-16T09:42:13;18.80;68.90
15105;DHT22;7653;48.994;9.212;2022-10-16T09:44:39;19.00;66.70
15105;DHT22;7653;48.994;9.212;2022-10-16T09:47:36;19.10;63.60
15105;DHT22;7653;48.994;9.212;2022-10-16T09:50:20;19.30;62.70
15105;DHT22;7653;48.994;9.212;2022-10-16T09:52:47;19.50;62.10
15105;DHT22;7653;48.994;9.212;2022-10-16T09:55:16;19.50;62.20
15105;DHT22;7653;48.994;9.212;2022-10-16T09:57:52;19.60;63.10
15105;DHT22;7653;48.994;9.212;2022-10-16T10:00:19;19.80;59.80
15105;DHT22;7653;48.994;9.212;2022-10-16T10:02:45;19.80;59.20
15105;DHT22;7653;48.994;9.212;2022-10-16T10:07:57;19.90;59.10
15105;DHT22;7653;48.994;9.212;2022-10-16T10:10:29;19.90;57.10
15105;DHT22;7653;48.994;9.212;2022-10-16T10:12:55;19.90;56.50
15105;DHT22;7653;48.994;9.212;2022-10-16T10:15:22;20.00;54.60
15105;DHT22;7653;48.994;9.212;2022-10-16T10:17:53;20.10;56.60
15105;DHT22;7653;48.994;9.212;2022-10-16T10:22:53;20.20;59.00
15105;DHT22;7653;48.994;9.212;2022-10-16T10:25:26;20.10;57.40
15105;DHT22;7653;48.994;9.212;2022-10-16T10:55:57;21.80;49.40
15105;DHT22;7653;48.994;9.212;2022-10-16T10:58:15;21.80;48.50
15105;DHT22;7653;48.994;9.212;2022-10-16T11:00:55;21.60;50.00
15105;DHT22;7653;48.994;9.212;2022-10-16T11:05:56;22.10;46.20
15105;DHT22;7653;48.994;9.212;2022-10-16T11:08:47;22.50;44.70
15105;DHT22;7653;48.994;9.212;2022-10-16T11:16:38;22.20;44.30
15105;DHT22;7653;48.994;9.212;2022-10-16T11:22:02;22.00;44.80
15105;DHT22;7653;48.994;9.212;2022-10-16T11:27:09;22.00;43.50
15105;DHT22;7653;48.994;9.212;2022-10-16T11:29:49;21.90;45.00
15105;DHT22;7653;48.994;9.212;2022-10-16T11:32:32;21.60;43.70
15105;DHT22;7653;48.994;9.212;2022-10-16T11:35:14;21.30;45.80
15105;DHT22;7653;48.994;9.212;2022-10-16T11:37:45;21.10;45.70
15105;DHT22;7653;48.994;9.212;2022-10-16T11:42:59;21.70;45.70
15105;DHT22;7653;48.994;9.212;2022-10-16T11:45:40;21.80;45.10
15105;DHT22;7653;48.994;9.212;2022-10-16T11:50:55;22.10;42.80
15105;DHT22;7653;48.994;9.212;2022-10-16T11:55:50;22.50;41.10
15105;DHT22;7653;48.994;9.212;2022-10-16T12:01:42;22.90;42.20
15105;DHT22;7653;48.994;9.212;2022-10-16T12:04:34;23.10;33.90
15105;DHT22;7653;48.994;9.212;2022-10-16T12:07:08;23.30;34.10
15105;DHT22;7653;48.994;9.212;2022-10-16T12:09:38;23.30;34.60
15105;DHT22;7653;48.994;9.212;2022-10-16T12:12:04;23.50;34.10
15105;DHT22;7653;48.994;9.212;2022-10-16T12:14:38;23.20;35.60
15105;DHT22;7653;48.994;9.212;2022-10-16T12:17:37;23.30;34.10
15105;DHT22;7653;48.994;9.212;2022-10-16T12:22:51;23.10;34.60
15105;DHT22;7653;48.994;9.212;2022-10-16T12:25:37;23.10;32.90
15105;DHT22;7653;48.994;9.212;2022-10-16T12:28:29;22.80;32.10
15105;DHT22;7653;48.994;9.212;2022-10-16T12:31:04;22.60;32.90
15105;DHT22;7653;48.994;9.212;2022-10-16T12:33:33;22.70;33.00
15105;DHT22;7653;48.994;9.212;2022-10-16T12:36:04;22.90;33.30
15105;DHT22;7653;48.994;9.212;2022-10-16T12:40:59;23.30;32.10
15105;DHT22;7653;48.994;9.212;2022-10-16T12:48:37;23.70;31.00
15105;DHT22;7653;48.994;9.212;2022-10-16T12:53:37;23.00;29.20
15105;DHT22;7653;48.994;9.212;2022-10-16T12:56:23;23.40;29.60
15105;DHT22;7653;48.994;9.212;2022-10-16T13:10:02;23.30;28.60
15105;DHT22;7653;48.994;9.212;2022-10-16T13:12:37;23.60;28.50
15105;DHT22;7653;48.994;9.212;2022-10-16T13:28:41;22.80;34.90
15105;DHT22;7653;48.994;9.212;2022-10-16T13:31:23;22.90;29.80
15105;DHT22;7653;48.994;9.212;2022-10-16T13:33:55;22.90;31.80
15105;DHT22;7653;48.994;9.212;2022-10-16T13:36:22;23.10;32.00
15105;DHT22;7653;48.994;9.212;2022-10-16T13:38:48;22.80;31.70
15105;DHT22;7653;48.994;9.212;2022-10-16T13:41:16;23.00;29.10
15105;DHT22;7653;48.994;9.212;2022-10-16T13:43:52;23.20;29.00
15105;DHT22;7653;48.994;9.212;2022-10-16T13:46:23;23.40;30.40
15105;DHT22;7653;48.994;9.212;2022-10-16T13:49:04;23.50;29.30
15105;DHT22;7653;48.994;9.212;2022-10-16T13:51:31;24.00;31.40
15105;DHT22;7653;48.994;9.212;2022-10-16T13:53:57;23.80;31.10
15105;DHT22;7653;48.994;9.212;2022-10-16T13:56:29;23.40;30.60
15105;DHT22;7653;48.994;9.212;2022-10-16T13:59:06;23.70;31.90
15105;DHT22;7653;48.994;9.212;2022-10-16T14:01:53;24.40;33.70
15105;DHT22;7653;48.994;9.212;2022-10-16T14:04:21;23.90;33.30
15105;DHT22;7653;48.994;9.212;2022-10-16T14:06:50;23.80;28.00
15105;DHT22;7653;48.994;9.212;2022-10-16T14:09:26;24.00;28.10
15105;DHT22;7653;48.994;9.212;2022-10-16T14:14:25;23.40;27.70
15105;DHT22;7653;48.994;9.212;2022-10-16T14:16:52;23.70;32.50
15105;DHT22;7653;48.994;9.212;2022-10-16T14:19:21;23.90;28.10
15105;DHT22;7653;48.994;9.212;2022-10-16T14:21:49;23.80;29.00
15105;DHT22;7653;48.994;9.212;2022-10-16T14:26:57;24.80;28.40
15105;DHT22;7653;48.994;9.212;2022-10-16T14:29:24;24.90;27.10
15105;DHT22;7653;48.994;9.212;2022-10-16T14:34:35;24.00;30.00
15105;DHT22;7653;48.994;9.212;2022-10-16T14:37:18;24.00;28.10
15105;DHT22;7653;48.994;9.212;2022-10-16T14:39:50;23.70;31.20
15105;DHT22;7653;48.994;9.212;2022-10-16T14:42:20;24.00;30.20
15105;DHT22;7653;48.994;9.212;2022-10-16T14:44:48;24.20;30.00
15105;DHT22;7653;48.994;9.212;2022-10-16T14:47:19;24.20;30.60
15105;DHT22;7653;48.994;9.212;2022-10-16T14:49:52;23.70;31.70
15105;DHT22;7653;48.994;9.212;2022-10-16T14:52:20;23.40;33.30
15105;DHT22;7653;48.994;9.212;2022-10-16T14:54:48;23.60;33.90
15105;DHT22;7653;48.994;9.212;2022-10-16T14:57:23;23.40;34.90
15105;DHT22;7653;48.994;9.212;2022-10-16T14:59:50;22.90;37.70
15105;DHT22;7653;48.994;9.212;2022-10-16T15:02:29;22.70;36.10
15105;DHT22;7653;48.994;9.212;2022-10-16T15:04:55;23.10;35.80
15105;DHT22;7653;48.994;9.212;2022-10-16T15:07:21;23.40;37.10
15105;DHT22;7653;48.994;9.212;2022-10-16T15:09:47;23.60;36.20
15105;DHT22;7653;48.994;9.212;2022-10-16T15:12:12;23.70;35.80
15105;DHT22;7653;48.994;9.212;2022-10-16T15:14:50;23.70;38.40
15105;DHT22;7653;48.994;9.212;2022-10-16T15:17:16;23.50;41.00
15105;DHT22;7653;48.994;9.212;2022-10-16T15:19:42;23.30;40.90
15105;DHT22;7653;48.994;9.212;2022-10-16T15:22:10;23.30;37.40
15105;DHT22;7653;48.994;9.212;2022-10-16T15:24:36;23.20;38.50
15105;DHT22;7653;48.994;9.212;2022-10-16T15:27:02;23.20;38.80
15105;DHT22;7653;48.994;9.212;2022-10-16T15:29:27;23.10;39.80
15105;DHT22;7653;48.994;9.212;2022-10-16T15:31:53;23.10;39.80
15105;DHT22;7653;48.994;9.212;2022-10-16T15:34:19;23.10;39.00
15105;DHT22;7653;48.994;9.212;2022-10-16T15:36:45;23.10;38.50
15105;DHT22;7653;48.994;9.212;2022-10-16T15:39:16;23.10;40.40
15105;DHT22;7653;48.994;9.212;2022-10-16T15:41:42;23.00;42.40
15105;DHT22;7653;48.994;9.212;2022-10-16T15:44:09;22.60;45.20
15105;DHT22;7653;48.994;9.212;2022-10-16T15:46:34;22.30;46.80
15105;DHT22;7653;48.994;9.212;2022-10-16T15:49:01;22.00;51.60
15105;DHT22;7653;48.994;9.212;2022-10-16T15:51:27;22.10;53.60
15105;DHT22;7653;48.994;9.212;2022-10-16T15:53:55;22.20;54.30
15105;DHT22;7653;48.994;9.212;2022-10-16T15:56:21;22.20;53.50
15105;DHT22;7653;48.994;9.212;2022-10-16T15:58:48;22.20;53.90
15105;DHT22;7653;48.994;9.212;2022-10-16T16:01:14;22.30;52.60
15105;DHT22;7653;48.994;9.212;2022-10-16T16:03:39;22.40;50.70
15105;DHT22;7653;48.994;9.212;2022-10-16T16:06:09;22.30;49.80
15105;DHT22;7653;48.994;9.212;2022-10-16T16:08:35;22.30;49.00
15105;DHT22;7653;48.994;9.212;2022-10-16T16:13:28;22.00;49.60
15105;DHT22;7653;48.994;9.212;2022-10-16T16:15:54;22.10;48.60
15105;DHT22;7653;48.994;9.212;2022-10-16T16:18:20;22.10;48.50
15105;DHT22;7653;48.994;9.212;2022-10-16T16:20:46;22.00;50.20
15105;DHT22;7653;48.994;9.212;2022-10-16T16:23:12;21.70;52.00
15105;DHT22;7653;48.994;9.212;2022-10-16T16:25:38;21.60;52.50
15105;DHT22;7653;48.994;9.212;2022-10-16T16:28:03;21.60;51.10
15105;DHT22;7653;48.994;9.212;2022-10-16T16:30:29;21.60;51.00
15105;DHT22;7653;48.994;9.212;2022-10-16T16:32:55;21.50;51.00
15105;DHT22;7653;48.994;9.212;2022-10-16T16:35:20;21.20;53.30
15105;DHT22;7653;48.994;9.212;2022-10-16T16:37:47;21.10;53.30
15105;DHT22;7653;48.994;9.212;2022-10-16T16:40:13;20.90;56.10
15105;DHT22;7653;48.994;9.212;2022-10-16T16:42:38;20.80;55.90
15105;DHT22;7653;48.994;9.212;2022-10-16T16:45:05;20.80;56.70
15105;DHT22;7653;48.994;9.212;2022-10-16T16:47:30;20.50;59.80
15105;DHT22;7653;48.994;9.212;2022-10-16T16:49:56;20.50;59.90
15105;DHT22;7653;48.994;9.212;2022-10-16T16:52:22;20.50;59.30
15105;DHT22;7653;48.994;9.212;2022-10-16T16:54:48;20.40;59.80
15105;DHT22;7653;48.994;9.212;2022-10-16T16:57:18;20.30;61.50
15105;DHT22;7653;48.994;9.212;2022-10-16T16:59:44;20.10;63.80
15105;DHT22;7653;48.994;9.212;2022-10-16T17:02:10;20.20;61.40
15105;DHT22;7653;48.994;9.212;2022-10-16T17:04:35;20.20;58.30
15105;DHT22;7653;48.994;9.212;2022-10-16T17:07:01;20.00;60.70
15105;DHT22;7653;48.994;9.212;2022-10-16T17:09:27;19.80;63.70
15105;DHT22;7653;48.994;9.212;2022-10-16T17:11:52;19.70;64.10
15105;DHT22;7653;48.994;9.212;2022-10-16T17:14:19;19.50;66.50
15105;DHT22;7653;48.994;9.212;2022-10-16T17:16:44;19.30;66.90
15105;DHT22;7653;48.994;9.212;2022-10-16T17:19:13;19.20;68.50
15105;DHT22;7653;48.994;9.212;2022-10-16T17:21:40;19.00;69.90
15105;DHT22;7653;48.994;9.212;2022-10-16T17:24:06;18.90;70.50
15105;DHT22;7653;48.994;9.212;2022-10-16T17:26:32;18.90;69.10
15105;DHT22;7653;48.994;9.212;2022-10-16T17:29:03;18.90;69.40
15105;DHT22;7653;48.994;9.212;2022-10-16T17:31:35;18.80;70.30
15105;DHT22;7653;48.994;9.212;2022-10-16T17:34:04;18.80;68.20
15105;DHT22;7653;48.994;9.212;2022-10-16T17:36:32;18.60;68.00
15105;DHT22;7653;48.994;9.212;2022-10-16T17:39:00;18.60;68.70
15105;DHT22;7653;48.994;9.212;2022-10-16T17:41:30;18.40;71.30
15105;DHT22;7653;48.994;9.212;2022-10-16T17:43:56;18.40;72.40
15105;DHT22;7653;48.994;9.212;2022-10-16T17:46:22;18.30;72.60
15105;DHT22;7653;48.994;9.212;2022-10-16T17:48:50;18.20;73.20
15105;DHT22;7653;48.994;9.212;2022-10-16T17:51:19;18.30;71.00
15105;DHT22;7653;48.994;9.212;2022-10-16T17:53:50;18.30;71.10
15105;DHT22;7653;48.994;9.212;2022-10-16T17:56:16;18.30;71.60
15105;DHT22;7653;48.994;9.212;2022-10-16T17:58:42;18.10;71.20
15105;DHT22;7653;48.994;9.212;2022-10-16T18:01:27;17.90;73.70
15105;DHT22;7653;48.994;9.212;2022-10-16T18:03:57;17.90;76.60
15105;DHT22;7653;48.994;9.212;2022-10-16T18:06:24;17.90;77.00
15105;DHT22;7653;48.994;9.212;2022-10-16T18:08:51;17.90;76.90
15105;DHT22;7653;48.994;9.212;2022-10-16T18:11:18;17.90;75.10
15105;DHT22;7653;48.994;9.212;2022-10-16T18:13:44;17.90;74.70
15105;DHT22;7653;48.994;9.212;2022-10-16T18:16:11;17.90;76.20
15105;DHT22;7653;48.994;9.212;2022-10-16T18:18:39;17.90;76.20
15105;DHT22;7653;48.994;9.212;2022-10-16T18:21:07;17.90;74.60
15105;DHT22;7653;48.994;9.212;2022-10-16T18:23:34;17.90;74.10
15105;DHT22;7653;48.994;9.212;2022-10-16T18:26:02;17.80;73.70
15105;DHT22;7653;48.994;9.212;2022-10-16T18:28:28;17.50;76.60
15105;DHT22;7653;48.994;9.212;2022-10-16T18:30:58;17.50;76.90
15105;DHT22;7653;48.994;9.212;2022-10-16T18:33:25;17.60;78.40
15105;DHT22;7653;48.994;9.212;2022-10-16T18:35:52;17.50;78.60